createdAt,value
2018-05-12T00:00:48.099Z,12.80
2018-05-12T00:03:15.626Z,12.90
2018-05-12T00:05:43.997Z,12.70
2018-05-12T00:08:12.301Z,12.80
2018-05-12T00:10:39.899Z,12.80
2018-05-12T00:13:07.449Z,12.80
2018-05-12T00:15:34.975Z,12.80
2018-05-12T00:18:02.557Z,12.80
2018-05-12T00:20:30.136Z,12.80
2018-05-12T00:22:57.681Z,12.70
2018-05-12T00:25:25.282Z,12.70
2018-05-12T00:27:53.545Z,12.70
2018-05-12T00:30:21.112Z,12.60
2018-05-12T00:32:48.729Z,12.50
2018-05-12T00:35:16.315Z,12.60
2018-05-12T00:37:44.676Z,12.60
2018-05-12T00:40:12.284Z,12.60
2018-05-12T00:42:39.832Z,12.60
2018-05-12T00:45:07.411Z,12.50
2018-05-12T00:47:35.748Z,12.50
2018-05-12T00:50:03.349Z,12.50
2018-05-12T00:52:31.725Z,12.40
2018-05-12T00:54:59.301Z,12.40
2018-05-12T00:57:26.924Z,12.30
2018-05-12T00:59:54.469Z,12.30
2018-05-12T01:02:21.996Z,12.30
2018-05-12T01:04:49.577Z,12.20
2018-05-12T01:07:17.093Z,12.20
2018-05-12T01:09:45.785Z,12.30
2018-05-12T01:12:14.142Z,12.20
2018-05-12T01:14:41.731Z,12.20
2018-05-12T01:17:09.270Z,12.10
2018-05-12T01:19:37.730Z,12.20
2018-05-12T01:22:05.361Z,12.20
2018-05-12T01:24:32.906Z,12.10
2018-05-12T01:27:00.473Z,12.00
2018-05-12T01:29:28.030Z,12.00
2018-05-12T01:31:55.543Z,11.90
2018-05-12T01:34:23.078Z,11.90
2018-05-12T01:36:50.630Z,11.90
2018-05-12T01:39:18.178Z,11.60
2018-05-12T01:41:45.729Z,11.60
2018-05-12T01:44:13.265Z,11.70
2018-05-12T01:46:42.217Z,11.90
2018-05-12T01:49:09.750Z,11.90
2018-05-12T01:51:37.292Z,12.00
2018-05-12T01:54:04.852Z,12.10
2018-05-12T01:56:32.422Z,12.00
2018-05-12T01:59:00.004Z,11.90
2018-05-12T02:01:27.654Z,11.90
2018-05-12T02:03:55.245Z,11.90
2018-05-12T02:06:22.820Z,11.90
2018-05-12T02:08:50.369Z,11.90
2018-05-12T02:11:18.742Z,11.70
2018-05-12T02:13:46.277Z,11.70
2018-05-12T02:16:13.818Z,11.70
2018-05-12T02:18:41.386Z,11.80
2018-05-12T02:21:08.966Z,11.80
2018-05-12T02:23:36.516Z,11.70
2018-05-12T02:26:04.193Z,11.70
2018-05-12T02:28:31.757Z,11.70
2018-05-12T02:30:59.307Z,11.70
2018-05-12T02:33:27.692Z,11.60
2018-05-12T02:35:55.222Z,11.60
2018-05-12T02:38:22.773Z,11.40
2018-05-12T02:40:50.305Z,11.30
2018-05-12T02:43:17.836Z,11.40
2018-05-12T02:45:45.387Z,11.40
2018-05-12T02:48:12.941Z,11.40
2018-05-12T02:50:40.545Z,11.40
2018-05-12T02:53:08.090Z,11.50
2018-05-12T02:55:36.423Z,11.40
2018-05-12T02:58:03.958Z,11.40
2018-05-12T03:00:32.315Z,11.50
2018-05-12T03:02:59.850Z,11.40
2018-05-12T03:05:27.704Z,11.40
2018-05-12T03:07:56.051Z,11.30
2018-05-12T03:10:23.640Z,11.30
2018-05-12T03:12:51.176Z,11.30
2018-05-12T03:15:18.767Z,11.30
2018-05-12T03:17:46.298Z,11.30
2018-05-12T03:20:13.853Z,11.20
2018-05-12T03:22:41.447Z,11.30
2018-05-12T03:25:09.042Z,11.20
2018-05-12T03:27:37.430Z,11.20
2018-05-12T03:30:05.715Z,11.10
2018-05-12T03:32:33.287Z,11.10
2018-05-12T03:35:00.834Z,11.00
2018-05-12T03:37:28.377Z,10.90
2018-05-12T03:39:56.659Z,10.90
2018-05-12T03:42:24.974Z,10.90
2018-05-12T03:44:52.495Z,10.90
2018-05-12T03:47:20.825Z,11.10
2018-05-12T03:49:48.371Z,11.10
2018-05-12T03:52:15.948Z,11.10
2018-05-12T03:54:43.503Z,11.00
2018-05-12T03:57:11.062Z,10.90
2018-05-12T03:59:38.658Z,10.90
2018-05-12T04:02:06.259Z,11.00
2018-05-12T04:04:45.669Z,11.00
2018-05-12T04:07:24.854Z,11.00
2018-05-12T04:10:04.290Z,11.00
2018-05-12T04:12:39.747Z,11.10
2018-05-12T04:15:07.394Z,11.10
2018-05-12T04:17:34.947Z,11.10
2018-05-12T04:20:02.568Z,11.20
2018-05-12T04:22:30.132Z,11.20
2018-05-12T04:24:57.679Z,11.20
2018-05-12T04:27:26.247Z,11.20
2018-05-12T04:29:54.668Z,11.20
2018-05-12T04:32:22.285Z,11.10
2018-05-12T04:34:49.925Z,11.00
2018-05-12T04:37:17.473Z,11.00
2018-05-12T04:39:45.056Z,11.10
2018-05-12T04:42:12.578Z,11.30
2018-05-12T04:44:40.172Z,11.30
2018-05-12T04:47:07.721Z,11.50
2018-05-12T04:49:35.254Z,11.60
2018-05-12T04:52:02.802Z,11.80
2018-05-12T04:54:30.350Z,11.90
2018-05-12T04:56:58.773Z,12.20
2018-05-12T04:59:26.313Z,12.20
2018-05-12T05:01:53.876Z,12.40
2018-05-12T05:04:21.431Z,12.60
2018-05-12T05:06:48.992Z,12.70
2018-05-12T05:09:16.525Z,12.80
2018-05-12T05:11:44.830Z,13.00
2018-05-12T05:14:12.390Z,13.00
2018-05-12T05:16:39.939Z,13.10
2018-05-12T05:19:08.534Z,13.30
2018-05-12T05:21:36.081Z,13.40
2018-05-12T05:24:03.623Z,13.60
2018-05-12T05:26:31.986Z,14.00
2018-05-12T05:28:59.580Z,14.00
2018-05-12T05:31:27.101Z,14.10
2018-05-12T05:33:54.697Z,14.30
2018-05-12T05:36:22.269Z,14.40
2018-05-12T05:38:49.927Z,14.50
2018-05-12T05:41:17.938Z,14.60
2018-05-12T05:43:45.511Z,14.70
2018-05-12T05:46:13.044Z,14.70
2018-05-12T05:48:40.590Z,14.70
2018-05-12T05:51:08.175Z,14.70
2018-05-12T05:53:35.698Z,14.60
2018-05-12T05:56:03.261Z,14.40
2018-05-12T05:58:30.904Z,14.40
2018-05-12T06:00:58.477Z,14.50
2018-05-12T06:03:27.317Z,14.50
2018-05-12T06:05:54.866Z,14.50
2018-05-12T06:08:22.378Z,14.40
2018-05-12T06:10:49.917Z,14.50
2018-05-12T06:13:18.227Z,14.60
2018-05-12T06:15:45.790Z,14.50
2018-05-12T06:18:13.406Z,14.60
2018-05-12T06:20:41.790Z,14.60
2018-05-12T06:23:10.183Z,14.70
2018-05-12T06:25:37.781Z,14.70
2018-05-12T06:28:05.330Z,14.80
2018-05-12T06:30:32.882Z,14.90
2018-05-12T06:33:00.433Z,15.00
2018-05-12T06:35:27.955Z,15.00
2018-05-12T06:37:55.543Z,15.10
2018-05-12T06:40:23.841Z,15.30
2018-05-12T06:42:51.381Z,15.30
2018-05-12T06:45:18.904Z,15.40
2018-05-12T06:47:46.438Z,15.40
2018-05-12T06:50:13.966Z,15.50
2018-05-12T06:52:42.243Z,15.80
2018-05-12T06:55:09.798Z,15.70
2018-05-12T06:57:37.333Z,15.90
2018-05-12T07:00:04.917Z,16.00
2018-05-12T07:02:32.463Z,16.10
2018-05-12T07:05:00.807Z,16.40
2018-05-12T07:07:28.404Z,16.40
2018-05-12T07:09:57.295Z,16.60
2018-05-12T07:12:25.667Z,16.70
2018-05-12T07:14:53.151Z,16.70
2018-05-12T07:17:20.700Z,16.90
2018-05-12T07:19:48.476Z,17.00
2018-05-12T07:22:16.052Z,17.10
2018-05-12T07:24:43.606Z,17.20
2018-05-12T07:27:11.175Z,17.30
2018-05-12T07:29:38.821Z,17.40
2018-05-12T07:32:06.363Z,17.50
2018-05-12T07:34:33.890Z,17.50
2018-05-12T07:37:01.503Z,17.80
2018-05-12T07:39:29.063Z,18.00
2018-05-12T07:41:56.628Z,18.10
2018-05-12T07:44:25.001Z,18.10
2018-05-12T07:46:52.564Z,18.10
2018-05-12T07:49:20.100Z,18.10
2018-05-12T07:51:47.687Z,18.30
2018-05-12T07:54:15.322Z,18.30
2018-05-12T07:56:42.930Z,18.40
2018-05-12T07:59:11.417Z,18.70
2018-05-12T08:01:39.065Z,18.70
2018-05-12T08:04:06.613Z,18.80
2018-05-12T08:06:34.174Z,19.00
2018-05-12T08:09:01.761Z,19.10
2018-05-12T08:11:31.081Z,19.30
2018-05-12T08:13:58.708Z,19.30
2018-05-12T08:16:26.266Z,19.30
2018-05-12T08:18:53.801Z,19.40
2018-05-12T08:21:21.318Z,19.60
2018-05-12T08:23:48.854Z,19.80
2018-05-12T08:26:17.186Z,19.90
2018-05-12T08:28:44.769Z,19.90
2018-05-12T08:31:12.290Z,20.00
2018-05-12T08:33:40.614Z,20.00
2018-05-12T08:36:08.163Z,20.00
2018-05-12T08:38:35.693Z,20.00
2018-05-12T08:41:04.013Z,20.20
2018-05-12T08:43:31.526Z,20.20
2018-05-12T08:45:59.857Z,20.60
2018-05-12T08:48:27.379Z,20.60
2018-05-12T08:50:54.935Z,20.60
2018-05-12T08:53:22.732Z,20.60
2018-05-12T08:55:50.289Z,20.50
2018-05-12T08:58:18.090Z,20.40
2018-05-12T09:00:45.946Z,20.60
2018-05-12T09:03:13.618Z,20.50
2018-05-12T09:05:41.997Z,20.80
2018-05-12T09:08:09.518Z,20.80
2018-05-12T09:10:37.104Z,21.00
2018-05-12T09:13:04.628Z,21.10
2018-05-12T09:15:32.585Z,21.20
2018-05-12T09:18:00.129Z,21.30
2018-05-12T09:20:28.507Z,21.50
2018-05-12T09:22:56.809Z,21.70
2018-05-12T09:25:24.368Z,21.60
2018-05-12T09:27:52.621Z,21.70
2018-05-12T09:30:20.938Z,21.70
2018-05-12T09:32:48.470Z,21.80
2018-05-12T09:35:16.237Z,21.60
2018-05-12T09:37:43.767Z,21.50
2018-05-12T09:40:12.098Z,21.50
2018-05-12T09:42:39.770Z,21.50
2018-05-12T09:45:07.240Z,21.80
2018-05-12T09:47:34.806Z,21.90
2018-05-12T09:50:02.406Z,21.80
2018-05-12T09:52:29.970Z,21.90
2018-05-12T09:54:57.494Z,22.20
2018-05-12T09:57:25.049Z,22.40
2018-05-12T09:59:52.581Z,22.40
2018-05-12T10:02:20.149Z,22.40
2018-05-12T10:04:47.684Z,22.50
2018-05-12T10:07:15.222Z,22.60
2018-05-12T10:09:42.804Z,22.70
2018-05-12T10:12:10.332Z,22.90
2018-05-12T10:14:38.649Z,23.20
2018-05-12T10:17:06.198Z,23.20
2018-05-12T10:19:33.767Z,23.20
2018-05-12T10:22:01.295Z,23.40
2018-05-12T10:24:29.663Z,23.20
2018-05-12T10:26:57.977Z,23.30
2018-05-12T10:29:25.532Z,23.30
2018-05-12T10:31:54.475Z,23.50
2018-05-12T10:34:23.289Z,23.80
2018-05-12T10:36:51.010Z,23.80
2018-05-12T10:39:18.563Z,23.90
2018-05-12T10:41:46.094Z,24.00
2018-05-12T10:44:13.725Z,24.00
2018-05-12T10:46:42.029Z,24.10
2018-05-12T10:49:09.637Z,24.00
2018-05-12T10:51:37.239Z,24.00
2018-05-12T10:54:04.764Z,24.00
2018-05-12T10:56:32.690Z,23.90
2018-05-12T10:59:00.205Z,23.90
2018-05-12T11:01:27.977Z,23.90
2018-05-12T11:03:55.549Z,23.80
2018-05-12T11:06:23.091Z,23.80
2018-05-12T11:08:51.372Z,24.10
2018-05-12T11:11:19.697Z,24.20
2018-05-12T11:13:48.045Z,24.40
2018-05-12T11:16:15.731Z,24.40
2018-05-12T11:18:43.278Z,24.50
2018-05-12T11:21:10.863Z,24.60
2018-05-12T11:23:38.445Z,24.60
2018-05-12T11:26:06.166Z,24.50
2018-05-12T11:28:33.754Z,24.70
2018-05-12T11:31:01.526Z,24.80
2018-05-12T11:33:29.098Z,24.90
2018-05-12T11:35:56.968Z,25.10
2018-05-12T11:38:27.205Z,25.20
2018-05-12T11:40:55.506Z,25.30
2018-05-12T11:43:23.047Z,25.30
2018-05-12T11:45:51.354Z,25.30
2018-05-12T11:48:18.908Z,25.30
2018-05-12T11:50:46.530Z,25.40
2018-05-12T11:53:14.115Z,25.30
2018-05-12T11:55:42.430Z,25.30
2018-05-12T11:58:09.987Z,25.30
2018-05-12T12:00:37.632Z,25.30
2018-05-12T12:03:06.305Z,25.50
2018-05-12T12:05:34.097Z,25.40
2018-05-12T12:08:01.673Z,25.50
2018-05-12T12:10:29.302Z,25.40
2018-05-12T12:12:56.824Z,25.30
2018-05-12T12:15:25.107Z,25.00
2018-05-12T12:17:52.682Z,25.00
2018-05-12T12:20:20.222Z,25.00
2018-05-12T12:22:48.855Z,25.00
2018-05-12T12:25:16.383Z,25.00
2018-05-12T12:27:43.931Z,25.10
2018-05-12T12:30:12.259Z,25.00
2018-05-12T12:32:39.810Z,25.00
2018-05-12T12:35:07.314Z,24.90
2018-05-12T12:37:35.649Z,25.00
2018-05-12T12:40:03.778Z,25.10
2018-05-12T12:42:31.846Z,25.20
2018-05-12T12:45:00.207Z,25.30
2018-05-12T12:47:27.708Z,25.30
2018-05-12T12:49:56.018Z,25.30
2018-05-12T12:52:23.586Z,25.20
2018-05-12T12:54:51.146Z,25.20
2018-05-12T12:57:18.660Z,25.20
2018-05-12T12:59:46.206Z,25.20
2018-05-12T13:02:15.110Z,25.30
2018-05-12T13:04:42.676Z,25.30
2018-05-12T13:07:10.193Z,25.10
2018-05-12T13:09:37.744Z,25.00
2018-05-12T13:12:05.281Z,25.00
2018-05-12T13:14:32.871Z,24.90
2018-05-12T13:17:00.399Z,24.70
2018-05-12T13:19:27.942Z,24.60
2018-05-12T13:21:55.485Z,24.60
2018-05-12T13:24:23.086Z,24.60
2018-05-12T13:26:50.632Z,24.50
2018-05-12T13:29:18.998Z,24.50
2018-05-12T13:31:47.289Z,24.30
2018-05-12T13:34:14.806Z,24.30
2018-05-12T13:36:42.370Z,24.30
2018-05-12T13:39:10.672Z,24.60
2018-05-12T13:41:38.213Z,24.60
2018-05-12T13:44:06.218Z,24.60
2018-05-12T13:46:34.534Z,24.40
2018-05-12T13:49:02.066Z,24.40
2018-05-12T13:51:29.634Z,24.30
2018-05-12T13:53:57.205Z,24.40
2018-05-12T13:56:25.561Z,24.50
2018-05-12T13:58:53.103Z,24.50
2018-05-12T14:01:20.725Z,24.60
2018-05-12T14:03:49.838Z,25.10
2018-05-12T14:06:17.391Z,25.10
2018-05-12T14:08:45.724Z,25.50
2018-05-12T14:11:13.273Z,25.40
2018-05-12T14:13:40.826Z,25.70
2018-05-12T14:16:08.428Z,25.70
2018-05-12T14:18:35.901Z,25.80
2018-05-12T14:21:03.433Z,25.40
2018-05-12T14:23:30.993Z,25.30
2018-05-12T14:25:58.573Z,25.20
2018-05-12T14:28:26.884Z,25.20
2018-05-12T14:30:55.188Z,25.30
2018-05-12T14:33:22.752Z,25.30
2018-05-12T14:35:50.277Z,25.40
2018-05-12T14:38:18.663Z,25.40
2018-05-12T14:40:46.184Z,25.30
2018-05-12T14:43:14.496Z,25.40
2018-05-12T14:45:42.043Z,25.40
2018-05-12T14:48:10.350Z,25.50
2018-05-12T14:50:38.697Z,25.50
2018-05-12T14:53:06.227Z,25.50
2018-05-12T14:55:33.777Z,25.40
2018-05-12T14:58:01.353Z,25.20
2018-05-12T15:00:29.662Z,25.20
2018-05-12T15:02:58.011Z,25.20
2018-05-12T15:05:25.529Z,25.10
2018-05-12T15:07:53.916Z,24.90
2018-05-12T15:10:22.167Z,25.10
2018-05-12T15:12:49.734Z,25.10
2018-05-12T15:15:17.330Z,25.20
2018-05-12T15:17:44.865Z,25.30
2018-05-12T15:20:12.409Z,25.30
2018-05-12T15:22:40.042Z,25.50
2018-05-12T15:25:08.201Z,25.60
2018-05-12T15:27:35.687Z,25.70
2018-05-12T15:30:03.228Z,25.70
2018-05-12T15:32:32.455Z,25.70
2018-05-12T15:34:59.990Z,25.70
2018-05-12T15:37:27.541Z,25.50
2018-05-12T15:39:55.852Z,25.40
2018-05-12T15:42:24.153Z,25.20
2018-05-12T15:44:52.474Z,25.10
2018-05-12T15:47:20.818Z,25.00
2018-05-12T15:49:48.387Z,25.00
2018-05-12T15:52:15.938Z,24.80
2018-05-12T15:54:43.449Z,24.70
2018-05-12T15:57:11.035Z,24.60
2018-05-12T15:59:38.568Z,24.40
2018-05-12T16:02:06.871Z,24.40
2018-05-12T16:04:34.399Z,24.30
2018-05-12T16:07:01.933Z,24.30
2018-05-12T16:09:30.310Z,24.40
2018-05-12T16:11:58.605Z,24.40
2018-05-12T16:14:26.177Z,24.40
2018-05-12T16:16:53.792Z,24.50
2018-05-12T16:19:21.326Z,24.50
2018-05-12T16:21:48.836Z,24.60
2018-05-12T16:24:17.145Z,24.70
2018-05-12T16:26:44.665Z,24.70
2018-05-12T16:29:12.970Z,24.70
2018-05-12T16:31:40.591Z,24.70
2018-05-12T16:34:08.077Z,24.60
2018-05-12T16:36:36.393Z,24.60
2018-05-12T16:39:03.921Z,24.60
2018-05-12T16:41:31.461Z,24.60
2018-05-12T16:43:59.016Z,24.60
2018-05-12T16:46:27.351Z,24.40
2018-05-12T16:48:54.901Z,24.30
2018-05-12T16:51:22.439Z,24.30
2018-05-12T16:53:49.983Z,24.30
2018-05-12T16:56:17.545Z,24.30
2018-05-12T16:58:45.834Z,24.10
2018-05-12T17:01:13.361Z,24.10
2018-05-12T17:03:40.901Z,24.10
2018-05-12T17:06:09.213Z,23.90
2018-05-12T17:08:37.644Z,23.90
2018-05-12T17:11:05.551Z,23.90
2018-05-12T17:13:33.874Z,23.80
2018-05-12T17:16:01.404Z,23.80
2018-05-12T17:18:29.732Z,23.60
2018-05-12T17:20:57.262Z,23.60
2018-05-12T17:23:24.907Z,23.50
2018-05-12T17:25:52.361Z,23.30
2018-05-12T17:28:19.948Z,23.20
2018-05-12T17:30:47.506Z,23.10
2018-05-12T17:33:15.082Z,23.00
2018-05-12T17:35:43.565Z,22.80
2018-05-12T17:38:11.081Z,22.80
2018-05-12T17:40:39.437Z,22.60
2018-05-12T17:43:06.959Z,22.60
2018-05-12T17:45:34.506Z,22.50
2018-05-12T17:48:02.069Z,22.40
2018-05-12T17:50:29.613Z,22.20
2018-05-12T17:52:57.913Z,22.00
2018-05-12T17:55:25.461Z,21.90
2018-05-12T17:57:53.762Z,21.80
2018-05-12T18:00:22.289Z,21.70
2018-05-12T18:02:50.607Z,21.60
2018-05-12T18:05:18.159Z,21.60
2018-05-12T18:07:45.695Z,21.50
2018-05-12T18:10:13.218Z,21.50
2018-05-12T18:12:40.770Z,21.40
2018-05-12T18:15:08.277Z,21.30
2018-05-12T18:17:35.835Z,21.30
2018-05-12T18:20:04.136Z,21.10
2018-05-12T18:22:31.682Z,21.10
2018-05-12T18:24:59.197Z,21.00
2018-05-12T18:27:27.530Z,20.90
2018-05-12T18:29:55.045Z,20.90
2018-05-12T18:32:23.370Z,20.90
2018-05-12T18:34:50.933Z,20.90
2018-05-12T18:37:18.498Z,20.80
2018-05-12T18:39:46.024Z,20.70
2018-05-12T18:42:13.572Z,20.70
2018-05-12T18:44:41.909Z,20.50
2018-05-12T18:47:09.448Z,20.50
2018-05-12T18:49:36.978Z,20.40
2018-05-12T18:52:04.592Z,20.30
2018-05-12T18:54:32.136Z,20.30
2018-05-12T18:56:59.673Z,20.20
2018-05-12T18:59:27.973Z,20.10
2018-05-12T19:01:55.486Z,20.10
2018-05-12T19:04:23.805Z,20.00
2018-05-12T19:06:51.347Z,20.00
2018-05-12T19:09:18.926Z,19.90
2018-05-12T19:11:46.438Z,19.90
2018-05-12T19:14:14.780Z,19.80
2018-05-12T19:16:42.569Z,19.80
2018-05-12T19:19:10.885Z,19.80
2018-05-12T19:21:38.410Z,19.70
2018-05-12T19:24:05.925Z,19.60
2018-05-12T19:26:34.281Z,19.50
2018-05-12T19:29:01.884Z,19.50
2018-05-12T19:31:29.436Z,19.40
2018-05-12T19:33:56.961Z,19.30
2018-05-12T19:36:24.507Z,19.30
2018-05-12T19:38:52.285Z,19.30
2018-05-12T19:41:19.835Z,19.20
2018-05-12T19:43:47.411Z,19.20
2018-05-12T19:46:15.670Z,19.10
2018-05-12T19:48:43.981Z,19.00
2018-05-12T19:51:11.564Z,18.90
2018-05-12T19:53:39.119Z,19.00
2018-05-12T19:56:06.659Z,19.00
2018-05-12T19:58:34.196Z,19.00
2018-05-12T20:01:01.820Z,18.90
2018-05-12T20:03:30.126Z,18.90
2018-05-12T20:05:58.407Z,18.90
2018-05-12T20:08:25.942Z,18.80
2018-05-12T20:10:54.250Z,18.80
2018-05-12T20:13:21.796Z,18.70
2018-05-12T20:15:50.094Z,18.80
2018-05-12T20:18:18.373Z,18.70
2018-05-12T20:20:45.885Z,18.80
2018-05-12T20:23:13.887Z,18.70
2018-05-12T20:25:42.251Z,18.50
2018-05-12T20:28:09.827Z,18.50
2018-05-12T20:30:37.366Z,18.50
2018-05-12T20:33:05.651Z,18.40
2018-05-12T20:35:33.205Z,18.40
2018-05-12T20:38:00.727Z,18.40
2018-05-12T20:40:28.552Z,18.40
2018-05-12T20:42:56.074Z,18.20
2018-05-12T20:45:24.410Z,18.10
2018-05-12T20:47:51.925Z,18.10
2018-05-12T20:50:20.225Z,18.10
2018-05-12T20:52:47.753Z,18.10
2018-05-12T20:55:16.062Z,18.00
2018-05-12T21:00:23.325Z,18.00
2018-05-12T21:02:50.881Z,17.90
2018-05-12T21:05:18.458Z,18.00
2018-05-12T21:07:46.770Z,17.80
2018-05-12T21:10:14.279Z,17.80
2018-05-12T21:12:42.598Z,17.50
2018-05-12T21:15:10.147Z,17.50
2018-05-12T21:17:37.725Z,17.50
2018-05-12T21:20:05.433Z,17.50
2018-05-12T21:22:33.733Z,17.40
2018-05-12T21:25:01.284Z,17.40
2018-05-12T21:27:28.841Z,17.50
2018-05-12T21:29:57.131Z,17.40
2018-05-12T21:32:25.469Z,17.40
2018-05-12T21:34:53.121Z,17.40
2018-05-12T21:37:21.501Z,17.50
2018-05-12T21:39:49.035Z,17.60
2018-05-12T21:42:16.580Z,17.40
2018-05-12T21:44:44.094Z,17.40
2018-05-12T21:47:13.162Z,17.30
2018-05-12T21:49:40.674Z,17.30
2018-05-12T21:52:08.265Z,17.10
2018-05-12T21:54:35.834Z,17.00
2018-05-12T21:57:03.357Z,17.10
2018-05-12T21:59:30.911Z,17.00
2018-05-12T22:01:59.229Z,17.10
2018-05-12T22:04:27.441Z,17.10
2018-05-12T22:06:54.954Z,16.90
2018-05-12T22:09:22.485Z,17.00
2018-05-12T22:11:50.754Z,16.90
2018-05-12T22:14:19.064Z,16.70
2018-05-12T22:16:50.296Z,16.70
2018-05-12T22:19:17.837Z,16.70
2018-05-12T22:24:18.118Z,16.50
2018-05-12T22:26:45.741Z,16.50
2018-05-12T22:29:14.046Z,16.60
2018-05-12T22:31:41.553Z,16.50
2018-05-12T22:34:09.086Z,16.60
2018-05-12T22:36:36.595Z,16.50
2018-05-12T22:39:05.126Z,16.60
2018-05-12T22:41:32.663Z,16.60
2018-05-12T22:44:00.185Z,16.60
2018-05-12T22:46:27.741Z,16.50
2018-05-12T22:48:55.255Z,16.40
2018-05-12T22:51:22.790Z,16.50
2018-05-12T22:53:50.378Z,16.50
2018-05-12T22:56:17.938Z,16.40
2018-05-12T22:58:45.453Z,16.30
2018-05-12T23:01:16.086Z,16.20
2018-05-12T23:03:44.364Z,16.20
2018-05-12T23:06:12.654Z,16.20
2018-05-12T23:08:41.063Z,16.30
2018-05-12T23:11:08.630Z,16.30
2018-05-12T23:13:36.141Z,16.40
2018-05-12T23:16:04.431Z,16.70
2018-05-12T23:18:32.040Z,16.70
2018-05-12T23:21:00.262Z,17.00
2018-05-12T23:23:27.803Z,17.00
2018-05-12T23:25:55.321Z,17.10
2018-05-12T23:28:22.874Z,17.20
2018-05-12T23:30:50.411Z,17.30
2018-05-12T23:33:18.486Z,17.20
2018-05-12T23:35:45.997Z,17.20
2018-05-12T23:38:13.533Z,17.30
2018-05-12T23:40:41.832Z,17.20
2018-05-12T23:43:10.872Z,17.20
2018-05-12T23:45:38.399Z,17.20
2018-05-12T23:48:05.995Z,17.10
2018-05-12T23:50:33.499Z,17.20
2018-05-12T23:53:01.008Z,17.20
2018-05-12T23:55:28.553Z,17.10
2018-05-12T23:57:56.907Z,17.20
